sensor_id;sensor_type;location;lat;lon;timestamp;P1;durP1;ratioP1;P2;durP2;ratioP2
2213;SDS011;1113;42.018;23.986;2023-04-22T00:00:14;18.63;;;14.63;;
2213;SDS011;1113;42.018;23.986;2023-04-22T00:02:41;15.07;;;13.00;;
2213;SDS011;1113;42.018;23.986;2023-04-22T00:05:07;16.73;;;14.70;;
2213;SDS011;1113;42.018;23.986;2023-04-22T00:07:37;17.23;;;14.63;;
2213;SDS011;1113;42.018;23.986;2023-04-22T00:10:04;16.13;;;13.87;;
2213;SDS011;1113;42.018;23.986;2023-04-22T00:12:31;17.77;;;14.00;;
2213;SDS011;1113;42.018;23.986;2023-04-22T00:15:00;19.37;;;14.67;;
2213;SDS011;1113;42.018;23.986;2023-04-22T00:17:26;16.50;;;14.00;;
2213;SDS011;1113;42.018;23.986;2023-04-22T00:19:53;16.83;;;14.40;;
2213;SDS011;1113;42.018;23.986;2023-04-22T00:22:20;19.40;;;13.90;;
2213;SDS011;1113;42.018;23.986;2023-04-22T00:24:46;16.67;;;12.80;;
2213;SDS011;1113;42.018;23.986;2023-04-22T00:27:13;16.53;;;13.30;;
2213;SDS011;1113;42.018;23.986;2023-04-22T00:29:39;16.23;;;14.47;;
2213;SDS011;1113;42.018;23.986;2023-04-22T00:32:07;14.80;;;12.93;;
2213;SDS011;1113;42.018;23.986;2023-04-22T00:34:34;14.88;;;12.25;;
2213;SDS011;1113;42.018;23.986;2023-04-22T00:37:00;16.57;;;13.80;;
2213;SDS011;1113;42.018;23.986;2023-04-22T00:39:27;16.57;;;13.03;;
2213;SDS011;1113;42.018;23.986;2023-04-22T00:41:54;17.05;;;13.20;;
2213;SDS011;1113;42.018;23.986;2023-04-22T00:44:21;17.95;;;13.35;;
2213;SDS011;1113;42.018;23.986;2023-04-22T00:46:47;16.38;;;13.57;;
2213;SDS011;1113;42.018;23.986;2023-04-22T00:49:15;14.50;;;11.47;;
2213;SDS011;1113;42.018;23.986;2023-04-22T00:51:42;17.63;;;12.37;;
2213;SDS011;1113;42.018;23.986;2023-04-22T00:54:08;16.23;;;12.70;;
2213;SDS011;1113;42.018;23.986;2023-04-22T00:56:35;15.85;;;12.73;;
2213;SDS011;1113;42.018;23.986;2023-04-22T00:59:03;15.32;;;12.50;;
2213;SDS011;1113;42.018;23.986;2023-04-22T01:01:29;13.70;;;11.40;;
2213;SDS011;1113;42.018;23.986;2023-04-22T01:03:57;16.30;;;12.50;;
2213;SDS011;1113;42.018;23.986;2023-04-22T01:06:26;14.43;;;12.35;;
2213;SDS011;1113;42.018;23.986;2023-04-22T01:08:53;16.45;;;13.07;;
2213;SDS011;1113;42.018;23.986;2023-04-22T01:11:19;14.43;;;12.50;;
2213;SDS011;1113;42.018;23.986;2023-04-22T01:13:47;14.93;;;12.02;;
2213;SDS011;1113;42.018;23.986;2023-04-22T01:16:14;14.27;;;11.90;;
2213;SDS011;1113;42.018;23.986;2023-04-22T01:18:40;19.45;;;12.73;;
2213;SDS011;1113;42.018;23.986;2023-04-22T01:21:07;17.58;;;12.15;;
2213;SDS011;1113;42.018;23.986;2023-04-22T01:23:35;17.35;;;13.98;;
2213;SDS011;1113;42.018;23.986;2023-04-22T01:26:01;15.35;;;13.02;;
2213;SDS011;1113;42.018;23.986;2023-04-22T01:28:28;16.08;;;12.88;;
2213;SDS011;1113;42.018;23.986;2023-04-22T01:30:55;16.77;;;13.43;;
2213;SDS011;1113;42.018;23.986;2023-04-22T01:33:22;15.30;;;13.30;;
2213;SDS011;1113;42.018;23.986;2023-04-22T01:35:49;15.82;;;12.60;;
2213;SDS011;1113;42.018;23.986;2023-04-22T01:38:15;15.30;;;12.52;;
2213;SDS011;1113;42.018;23.986;2023-04-22T01:40:43;15.05;;;12.10;;
2213;SDS011;1113;42.018;23.986;2023-04-22T01:43:10;15.27;;;12.30;;
2213;SDS011;1113;42.018;23.986;2023-04-22T01:45:36;19.23;;;13.25;;
2213;SDS011;1113;42.018;23.986;2023-04-22T01:48:03;15.18;;;12.43;;
2213;SDS011;1113;42.018;23.986;2023-04-22T01:50:30;16.20;;;12.50;;
2213;SDS011;1113;42.018;23.986;2023-04-22T01:52:57;17.92;;;13.15;;
2213;SDS011;1113;42.018;23.986;2023-04-22T01:55:24;17.80;;;13.10;;
2213;SDS011;1113;42.018;23.986;2023-04-22T01:57:52;17.35;;;14.02;;
2213;SDS011;1113;42.018;23.986;2023-04-22T02:00:18;24.65;;;16.60;;
2213;SDS011;1113;42.018;23.986;2023-04-22T02:02:45;21.02;;;16.25;;
2213;SDS011;1113;42.018;23.986;2023-04-22T02:05:11;22.90;;;16.10;;
2213;SDS011;1113;42.018;23.986;2023-04-22T02:07:38;17.63;;;14.63;;
2213;SDS011;1113;42.018;23.986;2023-04-22T02:10:05;19.33;;;15.07;;
2213;SDS011;1113;42.018;23.986;2023-04-22T02:12:31;19.27;;;14.63;;
2213;SDS011;1113;42.018;23.986;2023-04-22T02:14:59;18.80;;;14.63;;
2213;SDS011;1113;42.018;23.986;2023-04-22T02:17:26;19.00;;;14.95;;
2213;SDS011;1113;42.018;23.986;2023-04-22T02:19:52;18.15;;;14.05;;
2213;SDS011;1113;42.018;23.986;2023-04-22T02:22:19;21.27;;;15.25;;
2213;SDS011;1113;42.018;23.986;2023-04-22T02:24:46;20.23;;;15.30;;
2213;SDS011;1113;42.018;23.986;2023-04-22T02:27:13;20.05;;;15.60;;
2213;SDS011;1113;42.018;23.986;2023-04-22T02:29:39;19.00;;;14.73;;
2213;SDS011;1113;42.018;23.986;2023-04-22T02:32:07;21.00;;;15.32;;
2213;SDS011;1113;42.018;23.986;2023-04-22T02:34:34;20.85;;;15.13;;
2213;SDS011;1113;42.018;23.986;2023-04-22T02:37:01;20.15;;;15.68;;
2213;SDS011;1113;42.018;23.986;2023-04-22T02:39:30;20.58;;;16.38;;
2213;SDS011;1113;42.018;23.986;2023-04-22T02:41:57;23.63;;;16.85;;
2213;SDS011;1113;42.018;23.986;2023-04-22T02:44:23;21.50;;;16.80;;
2213;SDS011;1113;42.018;23.986;2023-04-22T02:46:50;20.33;;;16.00;;
2213;SDS011;1113;42.018;23.986;2023-04-22T02:49:18;20.95;;;16.15;;
2213;SDS011;1113;42.018;23.986;2023-04-22T02:51:44;20.77;;;17.23;;
2213;SDS011;1113;42.018;23.986;2023-04-22T02:54:11;21.33;;;16.40;;
2213;SDS011;1113;42.018;23.986;2023-04-22T02:56:37;20.90;;;16.58;;
2213;SDS011;1113;42.018;23.986;2023-04-22T02:59:04;22.58;;;16.05;;
2213;SDS011;1113;42.018;23.986;2023-04-22T03:01:30;22.88;;;17.13;;
2213;SDS011;1113;42.018;23.986;2023-04-22T03:03:57;26.70;;;18.10;;
2213;SDS011;1113;42.018;23.986;2023-04-22T03:06:25;24.00;;;17.92;;
2213;SDS011;1113;42.018;23.986;2023-04-22T03:08:51;21.90;;;16.58;;
2213;SDS011;1113;42.018;23.986;2023-04-22T03:11:18;24.45;;;17.83;;
2213;SDS011;1113;42.018;23.986;2023-04-22T03:13:44;21.63;;;16.02;;
2213;SDS011;1113;42.018;23.986;2023-04-22T03:16:11;21.00;;;16.25;;
2213;SDS011;1113;42.018;23.986;2023-04-22T03:18:37;20.35;;;16.27;;
2213;SDS011;1113;42.018;23.986;2023-04-22T03:21:04;24.05;;;16.95;;
2213;SDS011;1113;42.018;23.986;2023-04-22T03:23:32;22.00;;;17.38;;
2213;SDS011;1113;42.018;23.986;2023-04-22T03:25:59;21.70;;;17.10;;
2213;SDS011;1113;42.018;23.986;2023-04-22T03:28:26;22.15;;;17.75;;
2213;SDS011;1113;42.018;23.986;2023-04-22T03:30:52;23.92;;;19.80;;
2213;SDS011;1113;42.018;23.986;2023-04-22T03:33:19;41.97;;;32.30;;
2213;SDS011;1113;42.018;23.986;2023-04-22T03:35:46;20.10;;;16.40;;
2213;SDS011;1113;42.018;23.986;2023-04-22T03:38:13;22.98;;;16.83;;
2213;SDS011;1113;42.018;23.986;2023-04-22T03:40:41;19.33;;;16.33;;
2213;SDS011;1113;42.018;23.986;2023-04-22T03:43:07;21.55;;;18.15;;
2213;SDS011;1113;42.018;23.986;2023-04-22T03:45:34;19.70;;;16.25;;
2213;SDS011;1113;42.018;23.986;2023-04-22T03:48:01;20.55;;;16.83;;
2213;SDS011;1113;42.018;23.986;2023-04-22T03:50:27;19.77;;;16.30;;
2213;SDS011;1113;42.018;23.986;2023-04-22T03:52:54;26.45;;;18.67;;
2213;SDS011;1113;42.018;23.986;2023-04-22T03:55:20;24.42;;;19.35;;
2213;SDS011;1113;42.018;23.986;2023-04-22T03:57:48;26.65;;;19.00;;
2213;SDS011;1113;42.018;23.986;2023-04-22T04:00:15;23.23;;;18.45;;
2213;SDS011;1113;42.018;23.986;2023-04-22T04:02:41;22.75;;;18.02;;
2213;SDS011;1113;42.018;23.986;2023-04-22T04:05:08;20.17;;;17.17;;
2213;SDS011;1113;42.018;23.986;2023-04-22T04:07:35;20.30;;;15.82;;
2213;SDS011;1113;42.018;23.986;2023-04-22T04:10:03;18.40;;;15.35;;
2213;SDS011;1113;42.018;23.986;2023-04-22T04:12:30;22.58;;;18.90;;
2213;SDS011;1113;42.018;23.986;2023-04-22T04:14:58;27.20;;;21.60;;
2213;SDS011;1113;42.018;23.986;2023-04-22T04:17:25;47.80;;;34.50;;
2213;SDS011;1113;42.018;23.986;2023-04-22T04:19:52;38.38;;;28.35;;
2213;SDS011;1113;42.018;23.986;2023-04-22T04:22:19;30.63;;;21.58;;
2213;SDS011;1113;42.018;23.986;2023-04-22T04:24:46;24.65;;;19.05;;
2213;SDS011;1113;42.018;23.986;2023-04-22T04:27:12;26.33;;;19.52;;
2213;SDS011;1113;42.018;23.986;2023-04-22T04:29:39;22.25;;;17.02;;
2213;SDS011;1113;42.018;23.986;2023-04-22T04:32:07;27.55;;;19.23;;
2213;SDS011;1113;42.018;23.986;2023-04-22T04:34:34;24.88;;;18.05;;
2213;SDS011;1113;42.018;23.986;2023-04-22T04:37:01;29.02;;;19.60;;
2213;SDS011;1113;42.018;23.986;2023-04-22T04:39:28;26.05;;;19.10;;
2213;SDS011;1113;42.018;23.986;2023-04-22T04:41:54;27.35;;;20.00;;
2213;SDS011;1113;42.018;23.986;2023-04-22T04:44:22;29.75;;;22.52;;
2213;SDS011;1113;42.018;23.986;2023-04-22T04:46:50;31.20;;;23.23;;
2213;SDS011;1113;42.018;23.986;2023-04-22T04:49:20;27.48;;;20.70;;
2213;SDS011;1113;42.018;23.986;2023-04-22T04:51:46;20.92;;;16.73;;
2213;SDS011;1113;42.018;23.986;2023-04-22T04:54:13;18.15;;;14.15;;
2213;SDS011;1113;42.018;23.986;2023-04-22T04:56:40;17.55;;;14.38;;
2213;SDS011;1113;42.018;23.986;2023-04-22T04:59:06;18.70;;;14.00;;
2213;SDS011;1113;42.018;23.986;2023-04-22T05:01:33;16.30;;;14.15;;
2213;SDS011;1113;42.018;23.986;2023-04-22T05:04:00;21.65;;;18.25;;
2213;SDS011;1113;42.018;23.986;2023-04-22T05:06:28;32.53;;;23.67;;
2213;SDS011;1113;42.018;23.986;2023-04-22T05:08:55;33.97;;;23.42;;
2213;SDS011;1113;42.018;23.986;2023-04-22T05:11:22;27.60;;;21.10;;
2213;SDS011;1113;42.018;23.986;2023-04-22T05:13:48;26.55;;;21.38;;
2213;SDS011;1113;42.018;23.986;2023-04-22T05:16:15;26.40;;;21.23;;
2213;SDS011;1113;42.018;23.986;2023-04-22T05:18:41;26.40;;;19.58;;
2213;SDS011;1113;42.018;23.986;2023-04-22T05:21:08;26.42;;;18.48;;
2213;SDS011;1113;42.018;23.986;2023-04-22T05:23:36;24.20;;;20.17;;
2213;SDS011;1113;42.018;23.986;2023-04-22T05:26:02;23.05;;;19.13;;
2213;SDS011;1113;42.018;23.986;2023-04-22T05:28:29;22.52;;;16.77;;
2213;SDS011;1113;42.018;23.986;2023-04-22T05:30:55;19.00;;;16.10;;
2213;SDS011;1113;42.018;23.986;2023-04-22T05:33:22;20.05;;;15.27;;
2213;SDS011;1113;42.018;23.986;2023-04-22T05:35:49;20.00;;;16.30;;
2213;SDS011;1113;42.018;23.986;2023-04-22T05:38:16;23.48;;;18.73;;
2213;SDS011;1113;42.018;23.986;2023-04-22T05:40:44;20.50;;;16.80;;
2213;SDS011;1113;42.018;23.986;2023-04-22T05:43:10;20.95;;;17.48;;
2213;SDS011;1113;42.018;23.986;2023-04-22T05:45:37;25.20;;;19.00;;
2213;SDS011;1113;42.018;23.986;2023-04-22T05:48:03;22.33;;;18.30;;
2213;SDS011;1113;42.018;23.986;2023-04-22T05:50:30;25.13;;;20.67;;
2213;SDS011;1113;42.018;23.986;2023-04-22T05:52:57;23.97;;;18.43;;
2213;SDS011;1113;42.018;23.986;2023-04-22T05:55:23;24.20;;;19.13;;
2213;SDS011;1113;42.018;23.986;2023-04-22T05:57:51;24.83;;;19.47;;
2213;SDS011;1113;42.018;23.986;2023-04-22T06:00:18;26.73;;;20.00;;
2213;SDS011;1113;42.018;23.986;2023-04-22T06:02:44;24.50;;;18.73;;
2213;SDS011;1113;42.018;23.986;2023-04-22T06:05:11;29.60;;;21.97;;
2213;SDS011;1113;42.018;23.986;2023-04-22T06:07:37;23.00;;;18.30;;
2213;SDS011;1113;42.018;23.986;2023-04-22T06:10:04;21.70;;;17.63;;
2213;SDS011;1113;42.018;23.986;2023-04-22T06:12:31;23.17;;;18.23;;
2213;SDS011;1113;42.018;23.986;2023-04-22T06:14:59;22.23;;;17.67;;
2213;SDS011;1113;42.018;23.986;2023-04-22T06:17:26;18.70;;;16.60;;
2213;SDS011;1113;42.018;23.986;2023-04-22T06:19:52;20.77;;;16.03;;
2213;SDS011;1113;42.018;23.986;2023-04-22T06:22:19;17.40;;;14.33;;
2213;SDS011;1113;42.018;23.986;2023-04-22T06:24:45;13.70;;;12.07;;
2213;SDS011;1113;42.018;23.986;2023-04-22T06:27:12;15.90;;;12.60;;
2213;SDS011;1113;42.018;23.986;2023-04-22T06:29:38;15.90;;;13.37;;
2213;SDS011;1113;42.018;23.986;2023-04-22T06:32:06;19.53;;;14.40;;
2213;SDS011;1113;42.018;23.986;2023-04-22T06:34:33;14.67;;;11.10;;
2213;SDS011;1113;42.018;23.986;2023-04-22T06:36:59;16.37;;;13.80;;
2213;SDS011;1113;42.018;23.986;2023-04-22T06:39:26;19.97;;;15.27;;
2213;SDS011;1113;42.018;23.986;2023-04-22T06:41:52;16.33;;;14.47;;
2213;SDS011;1113;42.018;23.986;2023-04-22T06:44:19;18.93;;;15.83;;
2213;SDS011;1113;42.018;23.986;2023-04-22T06:46:45;18.17;;;14.33;;
2213;SDS011;1113;42.018;23.986;2023-04-22T06:49:13;17.30;;;14.50;;
2213;SDS011;1113;42.018;23.986;2023-04-22T06:51:40;16.60;;;14.90;;
2213;SDS011;1113;42.018;23.986;2023-04-22T06:54:06;17.77;;;15.00;;
2213;SDS011;1113;42.018;23.986;2023-04-22T06:56:33;19.17;;;15.57;;
2213;SDS011;1113;42.018;23.986;2023-04-22T06:59:00;20.07;;;16.40;;
2213;SDS011;1113;42.018;23.986;2023-04-22T07:01:26;21.40;;;15.20;;
2213;SDS011;1113;42.018;23.986;2023-04-22T07:03:53;17.60;;;15.80;;
2213;SDS011;1113;42.018;23.986;2023-04-22T07:06:20;19.63;;;15.43;;
2213;SDS011;1113;42.018;23.986;2023-04-22T07:08:47;18.93;;;16.40;;
2213;SDS011;1113;42.018;23.986;2023-04-22T07:11:13;20.70;;;15.00;;
2213;SDS011;1113;42.018;23.986;2023-04-22T07:13:40;17.90;;;13.47;;
2213;SDS011;1113;42.018;23.986;2023-04-22T07:16:06;16.63;;;13.30;;
2213;SDS011;1113;42.018;23.986;2023-04-22T07:18:33;12.77;;;11.40;;
2213;SDS011;1113;42.018;23.986;2023-04-22T07:21:00;15.63;;;13.20;;
2213;SDS011;1113;42.018;23.986;2023-04-22T07:23:28;16.13;;;13.80;;
2213;SDS011;1113;42.018;23.986;2023-04-22T07:25:55;15.27;;;12.20;;
2213;SDS011;1113;42.018;23.986;2023-04-22T07:28:21;16.80;;;12.97;;
2213;SDS011;1113;42.018;23.986;2023-04-22T07:30:48;18.67;;;13.63;;
2213;SDS011;1113;42.018;23.986;2023-04-22T07:33:14;15.27;;;12.90;;
2213;SDS011;1113;42.018;23.986;2023-04-22T07:35:41;13.73;;;8.63;;
2213;SDS011;1113;42.018;23.986;2023-04-22T07:38:07;12.17;;;10.37;;
2213;SDS011;1113;42.018;23.986;2023-04-22T07:40:35;12.57;;;10.03;;
2213;SDS011;1113;42.018;23.986;2023-04-22T07:43:05;10.53;;;9.20;;
2213;SDS011;1113;42.018;23.986;2023-04-22T07:45:32;8.40;;;7.50;;
2213;SDS011;1113;42.018;23.986;2023-04-22T07:47:58;9.93;;;7.70;;
2213;SDS011;1113;42.018;23.986;2023-04-22T07:50:25;10.47;;;8.37;;
2213;SDS011;1113;42.018;23.986;2023-04-22T07:52:51;9.50;;;8.30;;
2213;SDS011;1113;42.018;23.986;2023-04-22T07:55:18;9.73;;;8.73;;
2213;SDS011;1113;42.018;23.986;2023-04-22T07:57:46;8.80;;;7.67;;
2213;SDS011;1113;42.018;23.986;2023-04-22T08:00:12;12.00;;;7.57;;
2213;SDS011;1113;42.018;23.986;2023-04-22T08:02:39;10.57;;;7.93;;
2213;SDS011;1113;42.018;23.986;2023-04-22T08:05:08;10.97;;;7.80;;
2213;SDS011;1113;42.018;23.986;2023-04-22T08:07:34;9.47;;;7.93;;
2213;SDS011;1113;42.018;23.986;2023-04-22T08:10:01;13.47;;;8.87;;
2213;SDS011;1113;42.018;23.986;2023-04-22T08:12:27;8.30;;;7.40;;
2213;SDS011;1113;42.018;23.986;2023-04-22T08:14:55;9.77;;;8.30;;
2213;SDS011;1113;42.018;23.986;2023-04-22T08:17:22;11.20;;;8.17;;
2213;SDS011;1113;42.018;23.986;2023-04-22T08:19:49;9.70;;;8.17;;
2213;SDS011;1113;42.018;23.986;2023-04-22T08:22:15;8.27;;;7.10;;
2213;SDS011;1113;42.018;23.986;2023-04-22T08:24:43;14.03;;;8.90;;
2213;SDS011;1113;42.018;23.986;2023-04-22T08:27:09;8.70;;;6.60;;
2213;SDS011;1113;42.018;23.986;2023-04-22T08:29:36;9.80;;;6.53;;
2213;SDS011;1113;42.018;23.986;2023-04-22T08:32:04;6.93;;;5.40;;
2213;SDS011;1113;42.018;23.986;2023-04-22T08:34:30;7.83;;;6.10;;
2213;SDS011;1113;42.018;23.986;2023-04-22T08:36:57;7.40;;;6.30;;
2213;SDS011;1113;42.018;23.986;2023-04-22T08:39:23;9.13;;;6.33;;
2213;SDS011;1113;42.018;23.986;2023-04-22T08:41:50;7.67;;;6.40;;
2213;SDS011;1113;42.018;23.986;2023-04-22T08:44:16;9.50;;;6.67;;
2213;SDS011;1113;42.018;23.986;2023-04-22T08:46:44;7.43;;;6.03;;
2213;SDS011;1113;42.018;23.986;2023-04-22T08:49:12;8.13;;;5.60;;
2213;SDS011;1113;42.018;23.986;2023-04-22T08:51:40;6.27;;;5.67;;
2213;SDS011;1113;42.018;23.986;2023-04-22T08:54:07;5.60;;;4.70;;
2213;SDS011;1113;42.018;23.986;2023-04-22T08:56:34;5.90;;;5.30;;
2213;SDS011;1113;42.018;23.986;2023-04-22T08:59:01;6.47;;;5.33;;
2213;SDS011;1113;42.018;23.986;2023-04-22T09:01:28;6.27;;;5.43;;
2213;SDS011;1113;42.018;23.986;2023-04-22T09:03:56;8.50;;;5.40;;
2213;SDS011;1113;42.018;23.986;2023-04-22T09:06:25;7.93;;;6.00;;
2213;SDS011;1113;42.018;23.986;2023-04-22T09:08:52;9.07;;;5.33;;
2213;SDS011;1113;42.018;23.986;2023-04-22T09:11:19;6.37;;;4.90;;
2213;SDS011;1113;42.018;23.986;2023-04-22T09:13:46;7.20;;;6.50;;
2213;SDS011;1113;42.018;23.986;2023-04-22T09:16:12;10.33;;;5.80;;
2213;SDS011;1113;42.018;23.986;2023-04-22T09:18:40;6.80;;;6.07;;
2213;SDS011;1113;42.018;23.986;2023-04-22T09:21:07;8.40;;;5.50;;
2213;SDS011;1113;42.018;23.986;2023-04-22T09:23:43;8.23;;;5.43;;
2213;SDS011;1113;42.018;23.986;2023-04-22T09:26:10;8.67;;;5.70;;
2213;SDS011;1113;42.018;23.986;2023-04-22T09:28:37;6.40;;;5.10;;
2213;SDS011;1113;42.018;23.986;2023-04-22T09:31:04;6.43;;;5.50;;
2213;SDS011;1113;42.018;23.986;2023-04-22T09:33:30;6.50;;;5.07;;
2213;SDS011;1113;42.018;23.986;2023-04-22T09:35:57;6.47;;;5.27;;
2213;SDS011;1113;42.018;23.986;2023-04-22T09:38:24;5.67;;;4.83;;
2213;SDS011;1113;42.018;23.986;2023-04-22T09:40:57;5.20;;;4.70;;
2213;SDS011;1113;42.018;23.986;2023-04-22T09:43:23;7.00;;;5.00;;
2213;SDS011;1113;42.018;23.986;2023-04-22T09:45:50;6.23;;;5.03;;
2213;SDS011;1113;42.018;23.986;2023-04-22T09:48:17;6.73;;;5.13;;
2213;SDS011;1113;42.018;23.986;2023-04-22T09:50:45;6.23;;;5.20;;
2213;SDS011;1113;42.018;23.986;2023-04-22T09:53:14;6.13;;;5.20;;
2213;SDS011;1113;42.018;23.986;2023-04-22T09:55:41;6.50;;;5.07;;
2213;SDS011;1113;42.018;23.986;2023-04-22T09:58:09;6.70;;;5.10;;
2213;SDS011;1113;42.018;23.986;2023-04-22T10:00:38;6.40;;;5.33;;
2213;SDS011;1113;42.018;23.986;2023-04-22T10:03:05;6.63;;;5.17;;
2213;SDS011;1113;42.018;23.986;2023-04-22T10:05:32;6.60;;;4.73;;
2213;SDS011;1113;42.018;23.986;2023-04-22T10:08:02;5.30;;;4.20;;
2213;SDS011;1113;42.018;23.986;2023-04-22T10:10:30;6.50;;;5.13;;
2213;SDS011;1113;42.018;23.986;2023-04-22T10:12:56;5.47;;;4.80;;
2213;SDS011;1113;42.018;23.986;2023-04-22T10:15:25;7.17;;;4.50;;
2213;SDS011;1113;42.018;23.986;2023-04-22T10:17:52;5.83;;;4.37;;
2213;SDS011;1113;42.018;23.986;2023-04-22T10:20:19;4.80;;;4.30;;
2213;SDS011;1113;42.018;23.986;2023-04-22T10:22:46;7.70;;;4.30;;
2213;SDS011;1113;42.018;23.986;2023-04-22T10:25:20;7.13;;;5.20;;
2213;SDS011;1113;42.018;23.986;2023-04-22T10:27:51;6.60;;;5.20;;
2213;SDS011;1113;42.018;23.986;2023-04-22T10:30:26;4.30;;;3.90;;
2213;SDS011;1113;42.018;23.986;2023-04-22T10:32:53;4.23;;;3.83;;
2213;SDS011;1113;42.018;23.986;2023-04-22T10:35:25;7.00;;;4.90;;
2213;SDS011;1113;42.018;23.986;2023-04-22T10:37:52;7.63;;;4.60;;
2213;SDS011;1113;42.018;23.986;2023-04-22T10:40:18;4.37;;;3.97;;
2213;SDS011;1113;42.018;23.986;2023-04-22T10:42:48;6.00;;;4.30;;
2213;SDS011;1113;42.018;23.986;2023-04-22T10:45:15;8.07;;;4.93;;
2213;SDS011;1113;42.018;23.986;2023-04-22T10:47:43;7.37;;;4.70;;
2213;SDS011;1113;42.018;23.986;2023-04-22T10:50:11;7.17;;;6.30;;
2213;SDS011;1113;42.018;23.986;2023-04-22T10:52:38;5.93;;;4.20;;
2213;SDS011;1113;42.018;23.986;2023-04-22T10:55:05;6.60;;;6.00;;
2213;SDS011;1113;42.018;23.986;2023-04-22T10:57:41;5.00;;;4.13;;
2213;SDS011;1113;42.018;23.986;2023-04-22T11:00:27;5.40;;;4.20;;
2213;SDS011;1113;42.018;23.986;2023-04-22T11:03:06;7.00;;;5.40;;
2213;SDS011;1113;42.018;23.986;2023-04-22T11:05:34;6.07;;;5.43;;
2213;SDS011;1113;42.018;23.986;2023-04-22T11:08:02;11.30;;;8.10;;
2213;SDS011;1113;42.018;23.986;2023-04-22T11:10:29;8.53;;;6.00;;
2213;SDS011;1113;42.018;23.986;2023-04-22T11:12:56;10.00;;;8.17;;
2213;SDS011;1113;42.018;23.986;2023-04-22T11:15:23;10.90;;;7.50;;
2213;SDS011;1113;42.018;23.986;2023-04-22T11:17:50;9.73;;;7.80;;
2213;SDS011;1113;42.018;23.986;2023-04-22T11:20:19;10.20;;;7.77;;
2213;SDS011;1113;42.018;23.986;2023-04-22T11:22:46;12.00;;;5.90;;
2213;SDS011;1113;42.018;23.986;2023-04-22T11:25:13;10.93;;;8.47;;
2213;SDS011;1113;42.018;23.986;2023-04-22T11:27:40;10.67;;;7.57;;
2213;SDS011;1113;42.018;23.986;2023-04-22T11:30:08;12.97;;;8.80;;
2213;SDS011;1113;42.018;23.986;2023-04-22T11:32:36;14.50;;;10.20;;
2213;SDS011;1113;42.018;23.986;2023-04-22T11:35:03;11.40;;;8.70;;
2213;SDS011;1113;42.018;23.986;2023-04-22T11:37:38;10.03;;;7.83;;
2213;SDS011;1113;42.018;23.986;2023-04-22T11:40:05;10.63;;;8.47;;
2213;SDS011;1113;42.018;23.986;2023-04-22T11:42:33;8.80;;;7.90;;
2213;SDS011;1113;42.018;23.986;2023-04-22T11:45:00;8.30;;;7.37;;
2213;SDS011;1113;42.018;23.986;2023-04-22T11:47:28;10.60;;;8.50;;
2213;SDS011;1113;42.018;23.986;2023-04-22T11:49:54;11.70;;;7.73;;
2213;SDS011;1113;42.018;23.986;2023-04-22T11:52:23;10.73;;;7.90;;
2213;SDS011;1113;42.018;23.986;2023-04-22T11:54:51;11.23;;;10.03;;
2213;SDS011;1113;42.018;23.986;2023-04-22T11:57:18;11.40;;;9.50;;
2213;SDS011;1113;42.018;23.986;2023-04-22T11:59:55;11.00;;;9.73;;
2213;SDS011;1113;42.018;23.986;2023-04-22T12:02:22;19.03;;;15.30;;
2213;SDS011;1113;42.018;23.986;2023-04-22T12:07:37;22.40;;;16.53;;
2213;SDS011;1113;42.018;23.986;2023-04-22T12:10:09;12.57;;;9.60;;
2213;SDS011;1113;42.018;23.986;2023-04-22T12:12:38;10.10;;;8.97;;
2213;SDS011;1113;42.018;23.986;2023-04-22T12:15:10;10.37;;;9.30;;
2213;SDS011;1113;42.018;23.986;2023-04-22T12:17:38;15.90;;;11.17;;
2213;SDS011;1113;42.018;23.986;2023-04-22T12:20:05;15.03;;;13.00;;
2213;SDS011;1113;42.018;23.986;2023-04-22T12:22:32;15.77;;;13.27;;
2213;SDS011;1113;42.018;23.986;2023-04-22T12:24:59;19.13;;;16.97;;
2213;SDS011;1113;42.018;23.986;2023-04-22T12:27:27;18.57;;;14.33;;
2213;SDS011;1113;42.018;23.986;2023-04-22T12:29:54;12.60;;;11.27;;
2213;SDS011;1113;42.018;23.986;2023-04-22T12:32:22;14.03;;;11.23;;
2213;SDS011;1113;42.018;23.986;2023-04-22T12:34:48;13.63;;;10.73;;
2213;SDS011;1113;42.018;23.986;2023-04-22T12:37:15;13.03;;;10.83;;
2213;SDS011;1113;42.018;23.986;2023-04-22T12:39:42;11.70;;;8.70;;
2213;SDS011;1113;42.018;23.986;2023-04-22T12:42:08;14.37;;;10.20;;
2213;SDS011;1113;42.018;23.986;2023-04-22T12:44:36;13.27;;;9.70;;
2213;SDS011;1113;42.018;23.986;2023-04-22T12:47:03;11.63;;;10.23;;
2213;SDS011;1113;42.018;23.986;2023-04-22T12:49:30;10.60;;;9.33;;
2213;SDS011;1113;42.018;23.986;2023-04-22T12:51:56;12.67;;;10.60;;
2213;SDS011;1113;42.018;23.986;2023-04-22T12:54:23;13.53;;;9.83;;
2213;SDS011;1113;42.018;23.986;2023-04-22T12:56:49;14.33;;;10.50;;
2213;SDS011;1113;42.018;23.986;2023-04-22T12:59:16;11.80;;;9.77;;
2213;SDS011;1113;42.018;23.986;2023-04-22T13:01:44;10.07;;;8.20;;
2213;SDS011;1113;42.018;23.986;2023-04-22T13:04:10;10.10;;;8.27;;
2213;SDS011;1113;42.018;23.986;2023-04-22T13:06:37;13.00;;;10.70;;
2213;SDS011;1113;42.018;23.986;2023-04-22T13:09:03;13.93;;;10.80;;
2213;SDS011;1113;42.018;23.986;2023-04-22T13:11:30;13.73;;;10.70;;
2213;SDS011;1113;42.018;23.986;2023-04-22T13:13:57;13.27;;;9.90;;
2213;SDS011;1113;42.018;23.986;2023-04-22T13:16:23;11.60;;;10.00;;
2213;SDS011;1113;42.018;23.986;2023-04-22T13:18:51;12.13;;;10.30;;
2213;SDS011;1113;42.018;23.986;2023-04-22T13:21:18;14.30;;;10.63;;
2213;SDS011;1113;42.018;23.986;2023-04-22T13:23:44;17.33;;;11.00;;
2213;SDS011;1113;42.018;23.986;2023-04-22T13:26:11;17.10;;;13.00;;
2213;SDS011;1113;42.018;23.986;2023-04-22T13:28:37;14.17;;;11.70;;
2213;SDS011;1113;42.018;23.986;2023-04-22T13:31:04;12.83;;;10.80;;
2213;SDS011;1113;42.018;23.986;2023-04-22T13:33:30;12.50;;;11.23;;
2213;SDS011;1113;42.018;23.986;2023-04-22T13:35:58;12.97;;;11.27;;
2213;SDS011;1113;42.018;23.986;2023-04-22T13:38:26;17.87;;;13.40;;
2213;SDS011;1113;42.018;23.986;2023-04-22T13:40:52;16.37;;;12.23;;
2213;SDS011;1113;42.018;23.986;2023-04-22T13:43:19;17.10;;;13.20;;
2213;SDS011;1113;42.018;23.986;2023-04-22T13:45:46;17.57;;;12.83;;
2213;SDS011;1113;42.018;23.986;2023-04-22T13:48:12;19.27;;;14.93;;
2213;SDS011;1113;42.018;23.986;2023-04-22T13:50:40;20.33;;;13.00;;
2213;SDS011;1113;42.018;23.986;2023-04-22T13:53:08;17.57;;;11.77;;
2213;SDS011;1113;42.018;23.986;2023-04-22T13:55:36;17.83;;;11.70;;
2213;SDS011;1113;42.018;23.986;2023-04-22T13:58:02;15.80;;;12.20;;
2213;SDS011;1113;42.018;23.986;2023-04-22T14:00:30;14.10;;;11.40;;
2213;SDS011;1113;42.018;23.986;2023-04-22T14:02:57;12.60;;;10.30;;
2213;SDS011;1113;42.018;23.986;2023-04-22T14:05:23;15.80;;;11.97;;
2213;SDS011;1113;42.018;23.986;2023-04-22T14:07:50;23.93;;;16.40;;
2213;SDS011;1113;42.018;23.986;2023-04-22T14:10:18;12.67;;;10.80;;
2213;SDS011;1113;42.018;23.986;2023-04-22T14:12:46;13.30;;;10.10;;
2213;SDS011;1113;42.018;23.986;2023-04-22T14:15:13;16.33;;;13.70;;
2213;SDS011;1113;42.018;23.986;2023-04-22T14:17:39;15.90;;;12.07;;
2213;SDS011;1113;42.018;23.986;2023-04-22T14:20:07;17.23;;;13.83;;
2213;SDS011;1113;42.018;23.986;2023-04-22T14:28:42;13.00;;;10.70;;
2213;SDS011;1113;42.018;23.986;2023-04-22T14:31:09;12.10;;;10.20;;
2213;SDS011;1113;42.018;23.986;2023-04-22T14:33:36;9.83;;;8.80;;
2213;SDS011;1113;42.018;23.986;2023-04-22T14:36:03;8.83;;;7.50;;
2213;SDS011;1113;42.018;23.986;2023-04-22T14:38:29;14.30;;;12.23;;
2213;SDS011;1113;42.018;23.986;2023-04-22T14:40:56;12.77;;;11.27;;
2213;SDS011;1113;42.018;23.986;2023-04-22T14:43:22;9.27;;;7.20;;
2213;SDS011;1113;42.018;23.986;2023-04-22T14:45:50;7.60;;;5.50;;
2213;SDS011;1113;42.018;23.986;2023-04-22T14:48:17;7.50;;;6.40;;
2213;SDS011;1113;42.018;23.986;2023-04-22T14:50:44;8.20;;;5.57;;